Time;durP1;ratioP1;P1;durP2;ratioP2;P2;SDS_P1;SDS_P2;PMS_P1;PMS_P2;Temp;Humidity;BMP_temperature;BMP_pressure;BME280_temperature;BME280_humidity;BME280_pressure;Samples;Min_cycle;Max_cycle;Signal;HPM_P1;HPM_P2
2020/12/31 00:00:38;;;;;;;11.03;5.95;;;;;;;13.21;58.66;100385.80;1808814;79;21342;-79
2020/12/31 00:03:06;;;;;;;14.65;7.67;;;;;;;13.20;58.65;100386.82;1808548;79;21208;-78
2020/12/31 00:05:34;;;;;;;11.18;7.15;;;;;;;13.20;58.61;100388.16;1808627;79;21185;-77
2020/12/31 00:08:02;;;;;;;12.65;8.38;;;;;;;13.21;58.60;100388.48;1809146;79;21166;-78
2020/12/31 00:10:30;;;;;;;11.53;8.33;;;;;;;13.20;58.50;100394.89;1809411;79;21520;-79
2020/12/31 00:12:58;;;;;;;11.73;6.40;;;;;;;13.19;58.46;100389.19;1786015;80;21195;-76
2020/12/31 00:15:28;;;;;;;13.08;6.87;;;;;;;13.21;58.40;100401.10;1800856;79;21174;-77
2020/12/31 00:17:57;;;;;;;12.65;7.37;;;;;;;13.18;58.22;100398.28;1785891;80;21172;-77
2020/12/31 00:20:25;;;;;;;17.07;7.70;;;;;;;13.17;58.17;100389.89;1800677;79;21677;-79
2020/12/31 00:22:53;;;;;;;15.10;8.95;;;;;;;13.18;58.17;100400.13;1785797;80;21446;-80
2020/12/31 00:25:20;;;;;;;13.03;7.12;;;;;;;13.14;58.03;100395.61;1800423;79;21357;-78
2020/12/31 00:27:50;;;;;;;10.90;6.58;;;;;;;13.12;58.07;100390.89;1785955;80;21033;-80
2020/12/31 00:30:18;;;;;;;12.47;7.25;;;;;;;13.13;58.05;100390.41;1800561;79;21150;-79
2020/12/31 00:32:48;;;;;;;11.97;7.20;;;;;;;13.13;58.00;100389.07;1785553;80;21172;-77
2020/12/31 00:35:17;;;;;;;15.28;8.78;;;;;;;13.09;58.08;100399.34;1800647;79;21194;-79
2020/12/31 00:37:47;;;;;;;11.30;7.08;;;;;;;13.04;58.17;100390.13;1786049;80;22638;-77
2020/12/31 00:40:16;;;;;;;12.30;7.80;;;;;;;13.02;58.13;100390.80;1800230;79;21147;-81
2020/12/31 00:42:44;;;;;;;15.08;8.45;;;;;;;13.09;57.90;100389.92;1785956;80;21144;-80
2020/12/31 00:45:12;;;;;;;14.43;7.15;;;;;;;13.08;57.76;100383.36;1800361;79;21175;-81
2020/12/31 00:47:40;;;;;;;14.83;8.50;;;;;;;13.06;57.72;100392.13;1786027;80;21128;-79
2020/12/31 00:50:10;;;;;;;13.68;7.80;;;;;;;13.02;57.75;100382.73;1800922;79;21431;-77
2020/12/31 00:52:37;;;;;;;14.10;8.43;;;;;;;13.03;57.71;100384.39;1786228;80;21169;-77
2020/12/31 00:55:07;;;;;;;10.75;6.95;;;;;;;13.04;57.64;100383.41;1774031;79;21150;-76
2020/12/31 00:57:34;;;;;;;15.25;7.60;;;;;;;13.01;57.56;100385.92;1786468;80;21164;-78
2020/12/31 01:00:05;;;;;;;12.43;7.37;;;;;;;12.97;57.53;100379.22;1800869;79;21122;-78
2020/12/31 01:02:35;;;;;;;14.85;7.47;;;;;;;12.93;57.56;100381.41;1786869;80;22214;-79
2020/12/31 01:05:08;;;;;;;11.40;7.08;;;;;;;12.90;57.58;100384.48;1800655;79;21111;-79
2020/12/31 01:07:36;;;;;;;13.40;7.12;;;;;;;12.89;57.51;100384.62;1786107;80;21148;-78
2020/12/31 01:10:08;;;;;;;13.25;8.05;;;;;;;12.87;57.53;100381.29;1800434;79;21182;-78
2020/12/31 01:12:35;;;;;;;12.40;6.92;;;;;;;12.86;57.46;100387.17;1786396;80;21172;-77
2020/12/31 01:15:04;;;;;;;11.95;7.00;;;;;;;12.84;57.37;100390.53;1800673;79;21863;-77
2020/12/31 01:17:33;;;;;;;13.43;6.90;;;;;;;12.84;57.35;100392.38;1786317;80;21172;-78
2020/12/31 01:20:01;;;;;;;12.47;7.35;;;;;;;12.86;57.28;100391.72;1800888;79;21179;-77
2020/12/31 01:22:28;;;;;;;15.00;8.58;;;;;;;12.87;57.17;100397.42;1785989;80;21643;-78
2020/12/31 01:24:56;;;;;;;13.80;8.13;;;;;;;12.89;57.03;100390.00;1800080;79;21565;-78
2020/12/31 01:27:25;;;;;;;10.50;7.35;;;;;;;12.86;57.03;100387.17;1786381;80;21374;-77
2020/12/31 01:29:53;;;;;;;10.75;7.60;;;;;;;12.87;56.97;100391.53;1800837;79;21672;-80
2020/12/31 01:32:24;;;;;;;14.03;8.03;;;;;;;12.85;56.90;100391.36;1786332;80;21187;-79
2020/12/31 01:34:52;;;;;;;13.83;8.13;;;;;;;12.81;56.83;100380.63;1801072;79;21146;-80
2020/12/31 01:37:20;;;;;;;10.95;6.55;;;;;;;12.76;56.83;100373.09;1786966;80;21155;-82
2020/12/31 01:39:49;;;;;;;13.22;8.15;;;;;;;12.74;56.89;100375.63;1801136;79;21408;-83
2020/12/31 01:42:17;;;;;;;11.08;7.33;;;;;;;12.67;56.92;100376.34;1786582;80;21159;-83
2020/12/31 01:44:44;;;;;;;14.90;8.23;;;;;;;12.64;56.97;100375.33;1801147;79;21162;-79
2020/12/31 01:47:13;;;;;;;9.55;6.67;;;;;;;12.64;56.96;100374.50;1786352;80;21148;-80
2020/12/31 01:49:42;;;;;;;14.45;8.30;;;;;;;12.61;56.89;100367.61;1801055;79;21055;-78
2020/12/31 01:52:10;;;;;;;10.48;6.60;;;;;;;12.58;56.91;100372.01;1786406;80;21451;-81
2020/12/31 01:54:38;;;;;;;11.55;8.40;;;;;;;12.57;56.85;100368.12;1800846;79;21403;-80
2020/12/31 01:57:06;;;;;;;13.15;8.10;;;;;;;12.56;56.84;100371.83;1786366;80;21502;-79
2020/12/31 01:59:34;;;;;;;13.58;7.70;;;;;;;12.54;56.79;100372.02;1774091;79;21173;-80
2020/12/31 02:02:03;;;;;;;11.03;7.20;;;;;;;12.50;56.79;100368.00;1786410;80;21192;-79
2020/12/31 02:04:30;;;;;;;10.08;6.58;;;;;;;12.48;56.86;100369.17;1800933;79;21381;-79
2020/12/31 02:06:58;;;;;;;12.13;7.08;;;;;;;12.49;56.81;100363.64;1785825;80;21667;-81
2020/12/31 02:09:27;;;;;;;12.93;7.37;;;;;;;12.49;56.67;100364.12;1801093;79;21154;-81
2020/12/31 02:11:55;;;;;;;12.25;8.23;;;;;;;12.45;56.71;100363.66;1786262;80;21176;-80
2020/12/31 02:14:23;;;;;;;9.50;6.92;;;;;;;12.42;56.76;100366.16;1800972;79;21154;-80
2020/12/31 02:16:50;;;;;;;10.85;6.30;;;;;;;12.42;56.77;100362.64;1786206;80;21381;-79
2020/12/31 02:19:18;;;;;;;17.07;8.38;;;;;;;12.40;56.75;100366.86;1800679;79;21165;-79
2020/12/31 02:21:47;;;;;;;12.10;7.65;;;;;;;12.33;56.78;100359.65;1786248;80;21162;-78
2020/12/31 02:24:15;;;;;;;12.95;7.55;;;;;;;12.30;56.90;100345.20;1800714;79;21169;-81
2020/12/31 02:26:45;;;;;;;11.85;7.37;;;;;;;12.28;56.90;100350.77;1785971;80;21054;-79
2020/12/31 02:29:14;;;;;;;12.00;7.30;;;;;;;12.25;56.89;100344.38;1800789;79;21357;-80
2020/12/31 02:31:43;;;;;;;11.55;6.25;;;;;;;12.31;56.90;100341.51;1786436;80;21369;-78
2020/12/31 02:34:10;;;;;;;9.60;6.12;;;;;;;12.34;56.76;100342.01;1800909;79;21501;-79
2020/12/31 02:36:39;;;;;;;11.70;7.25;;;;;;;12.32;56.69;100339.17;1786338;80;21132;-82
2020/12/31 02:39:12;;;;;;;11.75;7.40;;;;;;;12.28;56.69;100348.08;1800868;79;21606;-79
2020/12/31 02:41:40;;;;;;;14.70;7.55;;;;;;;12.27;56.66;100340.20;1786364;80;21364;-82
2020/12/31 02:44:08;;;;;;;18.37;6.40;;;;;;;12.23;56.58;100341.55;1801213;79;21612;-81
2020/12/31 02:46:36;;;;;;;12.90;7.75;;;;;;;12.20;56.60;100340.03;1786683;80;21584;-82
2020/12/31 02:49:04;;;;;;;13.62;7.37;;;;;;;12.16;56.66;100334.16;1800997;79;21142;-82
2020/12/31 02:51:32;;;;;;;15.43;8.35;;;;;;;12.17;56.62;100341.23;1786276;80;21148;-82
2020/12/31 02:54:02;;;;;;;13.55;7.62;;;;;;;12.12;56.65;100336.86;1800706;79;21353;-79
2020/12/31 02:56:30;;;;;;;10.40;6.10;;;;;;;12.10;56.71;100332.69;1786367;80;21176;-80
2020/12/31 02:58:59;;;;;;;9.50;5.62;;;;;;;12.09;56.70;100333.19;1800887;79;21165;-80
2020/12/31 03:01:26;;;;;;;11.43;7.53;;;;;;;12.05;56.74;100335.87;1786731;80;21512;-79
2020/12/31 03:03:54;;;;;;;13.18;8.23;;;;;;;12.00;56.80;100330.19;1801160;79;21206;-82
2020/12/31 03:06:22;;;;;;;12.47;6.58;;;;;;;12.00;56.88;100334.22;1786584;80;22350;-79
2020/12/31 03:08:50;;;;;;;11.05;6.85;;;;;;;12.03;56.81;100337.05;1800854;79;21162;-80
2020/12/31 03:11:22;;;;;;;16.57;8.05;;;;;;;12.05;56.79;100343.10;1786335;80;21169;-80
2020/12/31 03:13:50;;;;;;;15.10;8.05;;;;;;;12.01;56.83;100341.25;1800890;79;21134;-80
2020/12/31 03:16:19;;;;;;;10.93;7.83;;;;;;;12.00;56.76;100337.41;1786624;80;21133;-79
2020/12/31 03:18:47;;;;;;;9.95;6.50;;;;;;;11.95;56.83;100336.58;1801141;79;21459;-81
2020/12/31 03:21:16;;;;;;;16.02;8.03;;;;;;;11.92;56.85;100335.06;1786603;80;21203;-79
2020/12/31 03:23:43;;;;;;;9.85;6.25;;;;;;;11.91;56.95;100332.55;1801108;79;21732;-78
2020/12/31 03:26:11;;;;;;;13.22;6.58;;;;;;;11.89;56.88;100335.38;1786464;80;21168;-79
2020/12/31 03:28:39;;;;;;;9.03;6.17;;;;;;;11.90;56.96;100337.59;1801025;79;21218;-79
2020/12/31 03:31:07;;;;;;;17.57;7.75;;;;;;;11.87;56.90;100340.61;1786492;80;21350;-79
2020/12/31 03:33:35;;;;;;;11.10;6.95;;;;;;;11.85;56.96;100342.09;1801195;79;21153;-80
2020/12/31 03:36:02;;;;;;;11.60;7.03;;;;;;;11.84;56.98;100350.33;1786466;80;21161;-81
2020/12/31 03:38:30;;;;;;;11.95;6.85;;;;;;;11.82;57.02;100342.93;1800932;79;21677;-82
2020/12/31 03:40:58;;;;;;;15.65;8.45;;;;;;;11.85;56.95;100337.23;1786580;80;21168;-79
2020/12/31 03:43:25;;;;;;;15.43;8.98;;;;;;;11.85;56.88;100347.97;1801108;79;21170;-82
2020/12/31 03:45:53;;;;;;;12.60;7.92;;;;;;;11.83;56.83;100333.89;1786146;80;21179;-79
2020/12/31 03:48:21;;;;;;;15.20;7.65;;;;;;;11.81;56.82;100344.78;1800847;79;21194;-78
2020/12/31 03:50:49;;;;;;;11.00;6.97;;;;;;;11.83;56.89;100345.47;1786324;80;21113;-79
2020/12/31 03:53:17;;;;;;;14.23;8.35;;;;;;;11.84;56.80;100339.09;1801184;79;21027;-79
2020/12/31 03:55:45;;;;;;;15.43;8.33;;;;;;;11.82;56.80;100329.04;1786607;80;21766;-81
2020/12/31 03:58:14;;;;;;;12.78;6.87;;;;;;;11.84;56.78;100323.49;1800956;79;21178;-82
2020/12/31 04:00:41;;;;;;;8.93;6.03;;;;;;;11.88;56.69;100344.45;1796857;78;21070;-82
2020/12/31 04:03:11;;;;;;;11.93;7.87;;;;;;;11.88;56.58;100336.91;1784134;80;21172;-80
2020/12/31 04:05:39;;;;;;;15.88;7.53;;;;;;;11.84;56.57;100328.86;1784297;80;21152;-77
2020/12/31 04:08:07;;;;;;;10.68;6.70;;;;;;;11.80;56.71;100340.91;1784226;80;21626;-79
2020/12/31 04:10:35;;;;;;;12.85;7.87;;;;;;;11.77;56.69;100338.58;1784126;80;21127;-78
2020/12/31 04:13:03;;;;;;;14.98;7.80;;;;;;;11.75;56.70;100347.28;1783983;80;21140;-76
2020/12/31 04:15:31;;;;;;;11.93;7.03;;;;;;;11.68;56.77;100335.89;1756132;80;21224;-78
2020/12/31 04:17:58;;;;;;;13.10;7.92;;;;;;;11.68;56.69;100338.58;1784223;80;21159;-79
2020/12/31 04:20:27;;;;;;;18.35;8.73;;;;;;;11.57;56.96;100346.11;1783391;80;22311;-78
2020/12/31 04:22:54;;;;;;;13.43;6.97;;;;;;;11.52;57.06;100340.41;1782963;80;21231;-80
2020/12/31 04:25:22;;;;;;;13.10;7.03;;;;;;;11.49;57.15;100343.41;1783303;80;21164;-79
2020/12/31 04:27:50;;;;;;;12.50;7.55;;;;;;;11.47;57.25;100337.39;1783371;80;21168;-77
2020/12/31 04:30:18;;;;;;;14.90;9.50;;;;;;;11.51;57.12;100347.62;1783337;80;21168;-78
2020/12/31 04:32:45;;;;;;;15.53;10.23;;;;;;;11.63;56.80;100348.98;1783610;80;21196;-81
2020/12/31 04:35:13;;;;;;;14.35;8.35;;;;;;;11.46;57.13;100349.97;1783379;80;21184;-79
2020/12/31 04:37:41;;;;;;;15.13;9.08;;;;;;;11.46;57.12;100359.36;1783891;80;21044;-79
2020/12/31 04:40:10;;;;;;;15.60;8.65;;;;;;;11.46;57.10;100359.86;1783801;80;21170;-78
2020/12/31 04:42:38;;;;;;;14.00;9.70;;;;;;;11.48;57.07;100361.86;1784277;80;21159;-80
2020/12/31 04:45:06;;;;;;;15.85;9.70;;;;;;;11.66;56.51;100362.03;1784105;80;21417;-80
2020/12/31 04:47:38;;;;;;;18.02;9.83;;;;;;;11.63;56.18;100369.09;1784018;80;21489;-78
2020/12/31 04:50:06;;;;;;;14.20;9.50;;;;;;;11.55;56.23;100368.25;1783842;80;21163;-78
2020/12/31 04:52:34;;;;;;;20.62;12.18;;;;;;;11.45;56.22;100362.22;1784295;80;21591;-79
2020/12/31 04:55:02;;;;;;;22.98;12.68;;;;;;;11.47;55.32;100366.90;1784073;80;21167;-79
2020/12/31 04:57:29;;;;;;;19.17;11.25;;;;;;;11.46;54.61;100370.08;1784043;79;21374;-77
2020/12/31 04:59:58;;;;;;;22.95;12.63;;;;;;;11.40;54.43;100374.28;1783709;80;21199;-77
2020/12/31 05:02:28;;;;;;;19.65;9.23;;;;;;;11.31;54.48;100375.73;1784380;80;21171;-82
2020/12/31 05:05:00;;;;;;;24.25;10.40;;;;;;;11.16;55.07;100376.38;1755485;80;21175;-78
2020/12/31 05:07:27;;;;;;;16.93;9.75;;;;;;;11.02;55.64;100371.66;1783878;80;21175;-79
2020/12/31 05:10:10;;;;;;;20.32;11.22;;;;;;;10.99;55.85;100374.69;1755578;80;21366;-79
2020/12/31 05:12:38;;;;;;;20.32;10.75;;;;;;;10.95;56.23;100377.35;1783811;80;21559;-80
2020/12/31 05:15:06;;;;;;;16.52;9.90;;;;;;;11.16;56.09;100379.06;1785563;79;21622;-79
2020/12/31 05:17:35;;;;;;;18.80;9.60;;;;;;;11.00;56.71;100380.38;1824495;78;21461;-80
2020/12/31 05:20:14;;;;;;;13.83;8.53;;;;;;;11.00;56.94;100385.74;1815485;79;21550;-80
2020/12/31 05:22:41;;;;;;;15.35;9.60;;;;;;;11.04;57.11;100384.42;1815466;79;21363;-78
2020/12/31 05:25:09;;;;;;;15.80;8.73;;;;;;;11.05;57.20;100390.11;1786187;79;21626;-78
2020/12/31 05:27:37;;;;;;;15.78;9.38;;;;;;;11.10;57.17;100385.09;1815378;79;21240;-82
2020/12/31 05:30:08;;;;;;;12.45;7.28;;;;;;;11.12;57.11;100387.09;1814924;79;21203;-79
2020/12/31 05:32:38;;;;;;;14.63;8.50;;;;;;;11.12;57.12;100394.30;1815601;79;21144;-79
2020/12/31 05:35:16;;;;;;;16.73;9.58;;;;;;;11.08;57.11;100389.80;1816528;79;22233;-80
2020/12/31 05:37:44;;;;;;;;;;;;;;;11.09;57.20;100395.98;1818648;79;21171;-81
2020/12/31 05:40:13;;;;;;;15.27;8.87;;;;;;;11.10;57.15;100402.52;1815217;79;20545;-81
2020/12/31 05:42:43;;;;;;;10.30;6.42;;;;;;;11.09;57.15;100410.23;1815809;79;21362;-81
2020/12/31 05:45:14;;;;;;;15.53;9.35;;;;;;;11.09;57.16;100413.41;1815682;79;21175;-80
2020/12/31 05:47:51;;;;;;;17.67;10.05;;;;;;;11.05;57.13;100400.83;1784480;79;21315;-79
2020/12/31 05:50:23;;;;;;;18.23;11.40;;;;;;;11.05;57.21;100402.67;1783735;79;21208;-79
2020/12/31 05:52:52;;;;;;;16.75;11.10;;;;;;;11.02;57.17;100403.83;1795355;79;21164;-80
2020/12/31 05:55:22;;;;;;;16.35;10.38;;;;;;;10.98;57.19;100409.67;1814876;79;21037;-78
2020/12/31 05:57:54;;;;;;;17.75;10.90;;;;;;;10.98;57.26;100410.51;1787125;79;21128;-80
2020/12/31 06:00:24;;;;;;;18.45;11.63;;;;;;;10.99;57.27;100410.88;1782415;79;21227;-80
2020/12/31 06:02:56;;;;;;;18.62;11.38;;;;;;;10.96;57.22;100406.33;1794586;79;21200;-81
2020/12/31 06:05:24;;;;;;;18.00;11.28;;;;;;;10.92;57.29;100406.64;1814567;79;21163;-79
2020/12/31 06:07:55;;;;;;;23.98;11.80;;;;;;;10.90;57.32;100409.13;1796725;79;21172;-80
2020/12/31 06:10:31;;;;;;;21.33;12.15;;;;;;;10.89;57.34;100410.98;1783107;79;21579;-79
2020/12/31 06:13:01;;;;;;;21.15;12.63;;;;;;;10.88;57.31;100407.97;1783804;79;21416;-79
2020/12/31 06:15:36;;;;;;;24.43;13.43;;;;;;;10.87;57.37;100406.80;1787259;77;21100;-79
2020/12/31 06:18:06;;;;;;;19.00;11.10;;;;;;;10.83;57.40;100391.53;1791562;77;21107;-78
2020/12/31 06:20:39;;;;;;;18.17;10.80;;;;;;;10.83;57.47;100397.40;1796162;79;21462;-79
2020/12/31 06:23:14;;;;;;;15.15;9.98;;;;;;;10.82;57.46;100399.23;1781968;80;21651;-79
2020/12/31 06:25:46;;;;;;;20.37;12.88;;;;;;;10.83;57.52;100390.70;1797294;79;21376;-78
2020/12/31 06:28:22;;;;;;;19.92;12.13;;;;;;;10.83;57.42;100392.04;1804367;77;21147;-78
2020/12/31 06:30:52;;;;;;;24.37;14.30;;;;;;;10.83;57.47;100401.42;1780656;80;21615;-78
2020/12/31 06:33:31;;;;;;;29.52;16.80;;;;;;;10.82;57.47;100413.14;1793677;77;21123;-80
2020/12/31 06:36:01;;;;;;;29.48;16.00;;;;;;;10.81;57.52;100408.76;1779000;77;21147;-79
2020/12/31 06:38:48;;;;;;;22.58;12.85;;;;;;;10.86;57.47;100402.45;1792673;79;23008;-79
2020/12/31 06:41:41;;;;;;;22.55;12.68;;;;;;;10.91;57.35;100398.27;1795257;77;21557;-81
2020/12/31 06:44:11;;;;;;;18.77;11.93;;;;;;;11.07;57.14;100406.86;1806110;79;21101;-79
2020/12/31 06:46:42;;;;;;;21.75;12.95;;;;;;;11.23;56.76;100410.61;1788994;79;21589;-80
2020/12/31 06:49:10;;;;;;;22.17;13.45;;;;;;;11.23;56.65;100413.28;1783632;80;21622;-80
2020/12/31 06:51:39;;;;;;;19.95;11.80;;;;;;;11.25;56.56;100405.91;1783450;80;21402;-79
2020/12/31 06:54:06;;;;;;;20.95;12.45;;;;;;;11.33;56.28;100415.31;1783367;80;21119;-79
2020/12/31 06:56:46;;;;;;;23.18;15.05;;;;;;;11.33;56.17;100416.66;1799064;77;21096;-79
2020/12/31 06:59:35;;;;;;;26.75;17.20;;;;;;;11.28;56.13;100416.31;1804254;77;21108;-79
2020/12/31 07:02:14;;;;;;;21.65;13.85;;;;;;;11.24;56.16;100418.47;1792679;77;21142;-79
2020/12/31 07:04:41;;;;;;;25.23;16.02;;;;;;;11.22;56.36;100411.11;1790459;79;21867;-80
2020/12/31 07:07:24;;;;;;;32.98;19.70;;;;;;;11.27;56.47;100420.00;1786075;79;21117;-78
2020/12/31 07:10:01;;;;;;;30.65;18.30;;;;;;;11.26;56.49;100419.64;1775869;80;21096;-79
2020/12/31 07:12:41;;;;;;;24.43;14.83;;;;;;;11.24;56.62;100417.14;1786642;77;21091;-79
2020/12/31 07:15:09;;;;;;;26.97;15.00;;;;;;;11.24;56.59;100422.50;1789418;78;21624;-79
2020/12/31 07:17:40;;;;;;;22.35;12.90;;;;;;;11.18;56.70;100422.66;1783669;80;21357;-79
2020/12/31 07:20:13;;;;;;;21.82;12.45;;;;;;;11.14;56.76;100419.95;1783767;79;21575;-79
2020/12/31 07:22:51;;;;;;;25.43;13.35;;;;;;;11.11;56.92;100424.30;1806043;79;21583;-80
2020/12/31 07:25:23;;;;;;;19.80;10.65;;;;;;;11.08;56.98;100429.13;1789965;79;21322;-80
2020/12/31 07:27:58;;;;;;;22.62;10.93;;;;;;;11.07;57.09;100419.42;1790020;79;21181;-78
2020/12/31 07:30:28;;;;;;;17.52;11.15;;;;;;;11.07;57.13;100426.95;1795948;79;21380;-79
2020/12/31 07:33:09;;;;;;;16.48;8.38;;;;;;;11.07;57.14;100424.78;1783332;79;21187;-78
2020/12/31 07:35:41;;;;;;;17.15;11.15;;;;;;;11.07;57.12;100422.94;1793047;77;21211;-81
2020/12/31 07:38:15;;;;;;;17.45;10.60;;;;;;;11.05;57.19;100420.09;1738394;80;21663;-79
2020/12/31 07:40:55;;;;;;;17.82;9.93;;;;;;;11.05;57.24;100419.59;1781070;79;21670;-79
2020/12/31 07:43:28;;;;;;;16.10;8.50;;;;;;;11.06;57.27;100417.24;1769792;80;21363;-80
2020/12/31 07:46:03;;;;;;;14.90;10.15;;;;;;;11.05;57.32;100424.12;1790240;79;21717;-81
2020/12/31 07:48:32;;;;;;;18.45;10.68;;;;;;;11.00;57.47;100417.91;1799053;77;21182;-78
2020/12/31 07:51:07;;;;;;;19.35;11.28;;;;;;;11.04;57.39;100415.24;1795722;79;21635;-79
2020/12/31 07:53:38;;;;;;;18.60;10.45;;;;;;;11.06;57.45;100411.88;1789831;78;21624;-78
2020/12/31 07:56:06;;;;;;;25.02;13.55;;;;;;;11.05;57.55;100411.55;1768015;79;21455;-78
2020/12/31 07:58:46;;;;;;;25.27;14.53;;;;;;;11.09;57.50;100420.11;1799176;77;21758;-79
2020/12/31 08:01:14;;;;;;;22.67;13.40;;;;;;;11.13;57.59;100423.65;1790656;78;21223;-79
2020/12/31 08:03:47;;;;;;;18.95;11.83;;;;;;;11.24;57.12;100428.36;1806056;77;21174;-80
2020/12/31 08:06:16;;;;;;;21.02;12.40;;;;;;;11.26;57.18;100427.18;1791964;79;21168;-80
2020/12/31 08:08:44;;;;;;;28.75;15.48;;;;;;;11.25;57.02;100420.66;1773149;80;21424;-80
2020/12/31 08:11:12;;;;;;;18.62;11.12;;;;;;;11.29;57.09;100418.82;1791851;77;21046;-81
2020/12/31 08:13:41;;;;;;;18.27;11.63;;;;;;;11.39;57.18;100418.16;1846779;77;21183;-80
2020/12/31 08:16:14;;;;;;;22.15;11.83;;;;;;;11.47;57.12;100426.73;1790606;79;21634;-79
2020/12/31 08:18:42;;;;;;;17.12;10.08;;;;;;;11.49;56.97;100424.75;1814539;78;21160;-80
2020/12/31 08:21:10;;;;;;;17.92;11.18;;;;;;;11.49;57.04;100423.41;1770134;79;22442;-80
2020/12/31 08:23:39;;;;;;;18.20;11.15;;;;;;;11.50;57.07;100423.73;1805887;79;21658;-80
2020/12/31 08:26:10;;;;;;;20.08;12.47;;;;;;;11.55;57.13;100423.24;1776059;79;21229;-81
2020/12/31 08:28:38;;;;;;;26.20;12.98;;;;;;;11.56;57.06;100424.41;1806222;79;21188;-80
2020/12/31 08:31:14;;;;;;;18.87;12.07;;;;;;;11.58;57.09;100418.86;1786567;79;21101;-80
2020/12/31 08:33:43;;;;;;;18.92;11.00;;;;;;;11.59;57.20;100417.89;1808816;79;21187;-80
2020/12/31 08:36:11;;;;;;;16.10;10.55;;;;;;;11.61;57.21;100424.75;1807715;79;21153;-80
2020/12/31 08:38:39;;;;;;;17.50;11.20;;;;;;;11.64;57.25;100425.77;1792835;77;21391;-79
2020/12/31 08:41:08;;;;;;;17.12;9.78;;;;;;;11.67;57.28;100425.45;1789767;77;21223;-79
2020/12/31 08:43:38;;;;;;;22.02;12.28;;;;;;;11.68;57.26;100420.41;1796680;77;21180;-80
2020/12/31 08:46:18;;;;;;;24.47;11.55;;;;;;;11.65;57.39;100416.70;1795104;79;21339;-78
2020/12/31 08:48:53;;;;;;;20.60;12.03;;;;;;;11.63;57.49;100420.07;1787138;79;21139;-80
2020/12/31 08:51:29;;;;;;;23.15;13.98;;;;;;;11.64;57.53;100419.56;1815907;79;21116;-81
2020/12/31 08:54:01;;;;;;;23.50;12.73;;;;;;;11.65;57.54;100418.05;1762812;79;21092;-79
2020/12/31 08:56:42;;;;;;;24.05;13.00;;;;;;;11.61;57.58;100415.36;1800180;77;21576;-83
2020/12/31 09:02:23;;;;;;;20.95;13.25;;;;;;;11.60;57.67;100420.39;1784047;78;21137;-80
2020/12/31 09:05:14;;;;;;;22.37;12.98;;;;;;;11.62;57.66;100417.53;1799695;79;21568;-79
2020/12/31 09:07:41;;;;;;;27.17;14.90;;;;;;;11.63;57.60;100416.55;1799103;77;21092;-78
2020/12/31 09:10:15;;;;;;;19.23;11.63;;;;;;;11.60;57.57;100407.48;1804554;77;21092;-80
2020/12/31 09:12:46;;;;;;;24.25;12.65;;;;;;;11.56;57.70;100419.55;1792670;78;21364;-78
2020/12/31 09:15:19;;;;;;;22.60;14.10;;;;;;;11.49;57.68;100420.73;1791741;79;21144;-78
2020/12/31 09:17:47;;;;;;;31.23;15.35;;;;;;;11.46;57.84;100418.87;1791544;79;21097;-78
2020/12/31 09:20:29;;;;;;;27.60;14.65;;;;;;;11.43;57.90;100416.00;1799453;77;21123;-83
2020/12/31 09:23:09;;;;;;;24.55;14.00;;;;;;;11.42;58.04;100414.33;1797737;77;23364;-78
2020/12/31 09:28:15;;;;;;;27.70;13.58;;;;;;;11.53;57.89;100409.98;1831882;76;22717;-80
2020/12/31 09:30:43;;;;;;;23.87;13.93;;;;;;;11.52;57.82;100414.17;1800307;78;21170;-79
2020/12/31 09:33:18;;;;;;;23.87;12.70;;;;;;;11.47;57.82;100410.64;1784673;80;21687;-80
2020/12/31 09:35:47;;;;;;;25.77;13.68;;;;;;;11.50;57.89;100402.78;1804334;79;21105;-81
2020/12/31 09:38:16;;;;;;;32.03;16.60;;;;;;;11.46;57.84;100410.31;1800265;78;21193;-81
2020/12/31 09:40:46;;;;;;;23.47;12.90;;;;;;;11.45;57.94;100401.94;1803850;78;21213;-80
2020/12/31 09:43:14;;;;;;;22.17;13.40;;;;;;;11.49;57.91;100410.00;1807898;78;21647;-80
2020/12/31 09:45:42;;;;;;;23.10;13.03;;;;;;;11.54;57.88;100409.50;1800436;78;21690;-80
2020/12/31 09:48:10;;;;;;;25.70;14.98;;;;;;;11.56;57.91;100408.81;1803823;78;21232;-80
2020/12/31 09:50:38;;;;;;;23.57;16.82;;;;;;;11.58;57.87;100399.61;1782720;78;21177;-80
2020/12/31 09:53:06;;;;;;;22.22;15.18;;;;;;;11.63;57.92;100400.45;1788508;80;21194;-78
2020/12/31 09:55:35;;;;;;;25.30;14.38;;;;;;;11.71;57.86;100392.89;1796887;79;21946;-80
2020/12/31 09:58:04;;;;;;;19.50;13.20;;;;;;;11.72;57.78;100395.43;1810169;78;22207;-81
2020/12/31 10:00:31;;;;;;;20.00;12.15;;;;;;;11.70;57.83;100392.06;1798870;77;21696;-80
2020/12/31 10:03:00;;;;;;;26.35;15.48;;;;;;;11.76;57.83;100383.84;1807219;79;21148;-80
2020/12/31 10:05:31;;;;;;;19.37;11.20;;;;;;;11.78;57.80;100389.89;1805938;78;21194;-81
2020/12/31 10:07:59;;;;;;;25.12;14.30;;;;;;;11.79;57.79;100387.53;1805037;79;21213;-79
2020/12/31 10:10:26;;;;;;;21.52;11.55;;;;;;;11.76;57.95;100381.98;1819913;77;21387;-78
2020/12/31 10:12:55;;;;;;;28.12;15.08;;;;;;;11.78;57.96;100377.31;1780555;79;21200;-78
2020/12/31 10:15:23;;;;;;;29.92;16.17;;;;;;;11.75;57.97;100381.66;1808489;77;21697;-79
2020/12/31 10:17:51;;;;;;;30.15;16.73;;;;;;;11.75;58.05;100381.66;1793965;77;21170;-81
2020/12/31 10:20:19;;;;;;;25.62;14.13;;;;;;;11.75;58.06;100372.77;1801520;77;21220;-80
2020/12/31 10:22:47;;;;;;;28.35;15.00;;;;;;;11.75;58.15;100369.58;1798105;77;21447;-80
2020/12/31 10:25:15;;;;;;;24.25;13.10;;;;;;;11.79;58.15;100376.30;1797082;77;21193;-78
2020/12/31 10:27:43;;;;;;;27.60;14.87;;;;;;;11.79;58.11;100367.41;1797494;79;21184;-78
2020/12/31 10:30:10;;;;;;;31.55;15.63;;;;;;;11.79;58.10;100361.53;1797097;79;21459;-79
2020/12/31 10:32:40;;;;;;;27.30;14.78;;;;;;;11.78;58.14;100361.20;1795985;77;21660;-78
2020/12/31 10:35:08;;;;;;;21.07;13.78;;;;;;;11.80;58.21;100360.52;1805382;77;21337;-79
2020/12/31 10:37:35;;;;;;;27.95;15.40;;;;;;;11.80;58.23;100358.34;1826449;77;21077;-80
2020/12/31 10:40:04;;;;;;;25.52;13.80;;;;;;;11.82;58.21;100355.87;1783825;78;21524;-78
2020/12/31 10:42:32;;;;;;;23.18;14.05;;;;;;;11.85;58.15;100347.97;1783779;79;21100;-79
2020/12/31 10:45:00;;;;;;;24.57;14.98;;;;;;;11.86;58.04;100341.63;1788061;79;21085;-79
2020/12/31 10:47:28;;;;;;;33.00;17.80;;;;;;;11.85;58.03;100339.92;1804579;79;21372;-80
2020/12/31 10:49:57;;;;;;;33.70;17.92;;;;;;;11.85;58.00;100329.19;1804217;79;21679;-81
2020/12/31 10:52:25;;;;;;;34.80;19.95;;;;;;;11.88;58.02;100332.88;1797114;77;21174;-79
2020/12/31 10:54:53;;;;;;;38.13;18.40;;;;;;;11.92;57.96;100316.77;1802541;79;21196;-80
2020/12/31 10:57:21;;;;;;;31.70;18.10;;;;;;;11.93;57.95;100319.78;1791733;79;21157;-81
2020/12/31 10:59:49;;;;;;;35.90;17.20;;;;;;;11.94;57.91;100321.45;1803594;79;21798;-80
2020/12/31 11:02:17;;;;;;;26.23;15.80;;;;;;;11.90;57.92;100324.17;1804021;79;21728;-81
2020/12/31 11:04:44;;;;;;;29.80;15.95;;;;;;;11.85;57.96;100331.36;1811527;78;21412;-80
2020/12/31 11:07:12;;;;;;;30.68;16.60;;;;;;;11.77;58.09;100318.45;1811450;79;21171;-79
2020/12/31 11:09:40;;;;;;;27.30;14.73;;;;;;;11.71;58.21;100316.42;1790692;79;21184;-79
2020/12/31 11:12:07;;;;;;;31.00;15.80;;;;;;;11.65;58.36;100325.48;1792966;78;21573;-79
2020/12/31 11:14:36;;;;;;;26.85;15.38;;;;;;;11.66;58.47;100320.45;1803927;79;21066;-79
2020/12/31 11:17:03;;;;;;;29.70;15.23;;;;;;;11.67;58.46;100317.26;1802908;79;21684;-79
2020/12/31 11:19:31;;;;;;;26.30;15.30;;;;;;;11.66;58.52;100324.47;1789026;80;21176;-79
2020/12/31 11:21:59;;;;;;;30.32;15.08;;;;;;;11.64;58.53;100331.86;1803030;79;21350;-80
2020/12/31 11:24:27;;;;;;;31.37;14.75;;;;;;;11.61;58.67;100330.84;1788859;80;21233;-78
2020/12/31 11:26:54;;;;;;;27.25;16.20;;;;;;;11.60;58.79;100323.81;1793881;77;21218;-77
2020/12/31 11:29:22;;;;;;;29.42;15.25;;;;;;;11.61;58.85;100326.83;1808077;77;21144;-78
2020/12/31 11:31:50;;;;;;;29.65;14.10;;;;;;;11.64;58.92;100327.84;1796985;77;21725;-79